createdAt,value
2022-09-12T00:01:36.583Z,100152.38
2022-09-12T00:04:05.171Z,100158.81
2022-09-12T00:06:36.236Z,100153.75
2022-09-12T00:09:09.561Z,100156.63
2022-09-12T00:11:41.928Z,100151.78
2022-09-12T00:14:12.930Z,100160.72
2022-09-12T00:16:41.674Z,100148.75
2022-09-12T00:19:12.841Z,100144.31
2022-09-12T00:21:42.238Z,100144.38
2022-09-12T00:24:12.102Z,100149.50
2022-09-12T00:26:41.650Z,100147.47
2022-09-12T00:29:11.767Z,100148.16
2022-09-12T00:31:40.041Z,100141.38
2022-09-12T00:34:08.363Z,100143.56
2022-09-12T00:36:36.887Z,100138.44
2022-09-12T00:39:05.858Z,100138.28
2022-09-12T00:41:38.017Z,100133.06
2022-09-12T00:44:51.838Z,100137.31
2022-09-12T00:47:28.282Z,100137.81
2022-09-12T00:50:08.340Z,100128.16
2022-09-12T00:52:42.174Z,100128.31
2022-09-12T00:55:14.564Z,100127.31
2022-09-12T00:57:50.794Z,100126.66
2022-09-12T01:00:25.267Z,100121.41
2022-09-12T01:02:58.470Z,100115.66
2022-09-12T01:05:29.747Z,100116.16
2022-09-12T01:07:58.881Z,100113.19
2022-09-12T01:10:27.520Z,100116.50
2022-09-12T01:12:55.698Z,100111.88
2022-09-12T01:15:26.633Z,100112.72
2022-09-12T01:18:11.084Z,100114.22
2022-09-12T01:21:08.804Z,100109.78
2022-09-12T01:24:51.580Z,100114.34
2022-09-12T01:28:07.951Z,100110.09
2022-09-12T01:30:51.464Z,100105.16
2022-09-12T01:34:01.211Z,100103.88
2022-09-12T01:36:52.871Z,100098.78
2022-09-12T01:39:32.210Z,100092.06
2022-09-12T01:42:15.584Z,100098.63
2022-09-12T01:44:55.682Z,100099.94
2022-09-12T01:47:34.053Z,100097.47
2022-09-12T01:50:07.898Z,100092.72
2022-09-12T01:52:44.919Z,100088.13
2022-09-12T01:55:20.027Z,100084.84
2022-09-12T01:57:55.141Z,100079.44
2022-09-12T02:00:23.579Z,100076.00
2022-09-12T02:02:58.777Z,100078.94
2022-09-12T02:05:33.530Z,100084.84
2022-09-12T02:08:09.116Z,100069.44
2022-09-12T02:10:45.176Z,100072.38
2022-09-12T02:13:18.446Z,100061.88
2022-09-12T02:15:50.769Z,100060.56
2022-09-12T02:18:21.911Z,100069.28
2022-09-12T02:20:51.425Z,100062.72
2022-09-12T02:23:24.339Z,100056.97
2022-09-12T02:25:58.677Z,100066.81
2022-09-12T02:28:31.740Z,100061.88
2022-09-12T02:31:09.157Z,100067.22
2022-09-12T02:33:48.803Z,100062.69
2022-09-12T02:36:29.603Z,100053.84
2022-09-12T02:38:58.026Z,100054.03
2022-09-12T02:41:26.309Z,100054.03
2022-09-12T02:43:55.654Z,100060.25
2022-09-12T02:46:28.257Z,100053.34
2022-09-12T02:48:58.712Z,100049.59
2022-09-12T02:51:28.290Z,100053.84
2022-09-12T02:53:57.125Z,100046.44
2022-09-12T02:56:31.487Z,100041.56
2022-09-12T02:59:03.761Z,100045.81
2022-09-12T03:01:53.258Z,100047.59
2022-09-12T03:04:48.377Z,100041.56
2022-09-12T03:07:37.558Z,100046.94
2022-09-12T03:10:15.714Z,100039.91
2022-09-12T03:12:55.225Z,100037.41
2022-09-12T03:15:39.400Z,100041.00
2022-09-12T03:18:21.991Z,100047.78
2022-09-12T03:21:03.093Z,100044.00
2022-09-12T03:23:38.475Z,100044.16
2022-09-12T03:26:14.195Z,100043.19
2022-09-12T03:28:45.398Z,100043.78
2022-09-12T03:31:15.879Z,100035.63
2022-09-12T03:33:44.689Z,100034.84
2022-09-12T03:36:23.450Z,100024.47
2022-09-12T03:38:51.755Z,100031.53
2022-09-12T03:41:20.374Z,100027.94
2022-09-12T03:43:49.097Z,100036.31
2022-09-12T03:46:17.313Z,100030.06
2022-09-12T03:48:45.566Z,100033.34
2022-09-12T03:51:16.453Z,100031.50
2022-09-12T03:53:44.611Z,100032.16
2022-09-12T03:56:14.084Z,100023.81
2022-09-12T03:58:42.792Z,100030.38
2022-09-12T04:01:12.751Z,100028.06
2022-09-12T04:03:41.773Z,100027.25
2022-09-12T04:06:12.586Z,100028.28
2022-09-12T04:08:43.480Z,100023.28
2022-09-12T04:11:15.546Z,100026.41
2022-09-12T04:13:46.786Z,100023.47
2022-09-12T04:16:17.241Z,100024.81
2022-09-12T04:18:48.278Z,100023.16
2022-09-12T04:21:19.262Z,100028.91
2022-09-12T04:23:49.450Z,100020.19
2022-09-12T04:26:21.764Z,100016.13
2022-09-12T04:28:54.685Z,100013.69
2022-09-12T04:31:23.610Z,100007.59
2022-09-12T04:33:56.208Z,100009.41
2022-09-12T04:36:24.909Z,100016.13
2022-09-12T04:38:57.405Z,100010.06
2022-09-12T04:41:28.796Z,100012.69
2022-09-12T04:43:59.380Z,100009.59
2022-09-12T04:46:28.626Z,100018.25
2022-09-12T04:48:57.422Z,100017.28
2022-09-12T04:51:28.250Z,100018.56
2022-09-12T04:54:00.587Z,100008.06
2022-09-12T04:56:30.414Z,100008.09
2022-09-12T04:59:00.436Z,100011.38
2022-09-12T05:01:31.224Z,100009.72
2022-09-12T05:04:00.805Z,99998.75
2022-09-12T05:06:31.666Z,100004.00
2022-09-12T05:09:02.122Z,99997.94
2022-09-12T05:11:59.759Z,100002.34
2022-09-12T05:14:21.105Z,99997.75
2022-09-12T05:16:49.953Z,100000.56
2022-09-12T05:19:18.757Z,100001.53
2022-09-12T05:21:47.004Z,100002.84
2022-09-12T05:24:16.789Z,100001.88
2022-09-12T05:26:45.137Z,99999.91
2022-09-12T05:29:13.515Z,100000.22
2022-09-12T05:31:41.931Z,100013.31
2022-09-12T05:34:10.499Z,100015.16
2022-09-12T05:36:39.550Z,100013.19
2022-09-12T05:39:08.438Z,100015.63
2022-09-12T05:41:38.248Z,100020.25
2022-09-12T05:44:11.983Z,100013.84
2022-09-12T05:46:42.531Z,100012.50
2022-09-12T05:49:13.713Z,100011.34
2022-09-12T05:51:46.196Z,100009.03
2022-09-12T05:54:19.322Z,100016.41
2022-09-12T05:56:49.982Z,100015.56
2022-09-12T05:59:20.550Z,100025.69
2022-09-12T06:01:49.814Z,100021.03
2022-09-12T06:04:18.518Z,100020.38
2022-09-12T06:06:47.323Z,100020.03
2022-09-12T06:09:17.365Z,100020.66
2022-09-12T06:11:47.273Z,100014.03
2022-09-12T06:14:19.393Z,100018.75
2022-09-12T06:16:49.952Z,100015.88
2022-09-12T06:19:20.586Z,100017.47
2022-09-12T06:21:49.744Z,100024.66
2022-09-12T06:24:19.275Z,100017.69
2022-09-12T06:26:48.418Z,100021.84
2022-09-12T06:29:19.220Z,100019.97
2022-09-12T06:31:47.606Z,100019.63
2022-09-12T06:34:17.407Z,100008.19
2022-09-12T06:36:47.928Z,100013.19
2022-09-12T06:39:18.933Z,100009.81
2022-09-12T06:41:48.343Z,100015.66
2022-09-12T06:44:21.157Z,100008.81
2022-09-12T06:46:49.879Z,100009.50
2022-09-12T06:49:18.655Z,100013.66
2022-09-12T06:51:46.855Z,100008.19
2022-09-12T06:54:16.725Z,100006.97
2022-09-12T06:56:45.975Z,100009.75
2022-09-12T06:59:14.512Z,100004.47
2022-09-12T07:01:44.229Z,100007.59
2022-09-12T07:04:14.808Z,100016.03
2022-09-12T07:06:44.586Z,100018.13
2022-09-12T07:09:17.604Z,100016.16
2022-09-12T07:11:47.273Z,100011.38
2022-09-12T07:14:16.794Z,100009.03
2022-09-12T07:16:46.452Z,100009.09
2022-09-12T07:19:14.636Z,100015.16
2022-09-12T07:21:43.040Z,100021.47
2022-09-12T07:24:11.959Z,100014.38
2022-09-12T07:26:41.968Z,100014.16
2022-09-12T07:32:07.992Z,100008.09
2022-09-12T07:34:36.924Z,100008.38
2022-09-12T07:37:05.838Z,100011.66
2022-09-12T07:39:34.471Z,100007.66
2022-09-12T07:42:02.641Z,100001.47
2022-09-12T07:44:30.874Z,100002.56
2022-09-12T07:46:59.190Z,100003.50
2022-09-12T07:49:30.448Z,99997.63
2022-09-12T07:51:58.801Z,99999.47
2022-09-12T07:54:27.647Z,99994.38
2022-09-12T07:56:56.255Z,99989.31
2022-09-12T07:59:48.496Z,99996.97
2022-09-12T08:02:17.091Z,99992.28
2022-09-12T08:04:49.054Z,99981.06
2022-09-12T08:07:19.284Z,99986.38
2022-09-12T08:09:47.849Z,99986.53
2022-09-12T08:12:17.677Z,99985.34
2022-09-12T08:14:45.900Z,99991.44
2022-09-12T08:17:14.271Z,100001.63
2022-09-12T08:19:42.763Z,99991.25
2022-09-12T08:22:13.088Z,99989.44
2022-09-12T08:24:41.744Z,99997.22
2022-09-12T08:27:10.737Z,99992.34
2022-09-12T08:29:39.145Z,99985.63
2022-09-12T08:32:07.511Z,99989.91
2022-09-12T08:34:36.119Z,99988.06
2022-09-12T08:37:04.340Z,99987.19
2022-09-12T08:39:34.143Z,99984.53
2022-09-12T08:42:04.826Z,99986.38
2022-09-12T08:45:02.710Z,99986.28
2022-09-12T08:47:35.551Z,99982.03
2022-09-12T08:50:18.759Z,99980.63
2022-09-12T08:52:58.383Z,99977.19
2022-09-12T08:55:35.571Z,99975.59
2022-09-12T08:58:14.138Z,99971.94
2022-09-12T09:00:55.009Z,99964.69
2022-09-12T09:03:51.021Z,99963.34
2022-09-12T09:06:40.900Z,99961.06
2022-09-12T09:09:16.266Z,99953.19
2022-09-12T09:12:01.603Z,99958.94
2022-09-12T09:14:55.383Z,99961.06
2022-09-12T09:17:29.072Z,99956.09
2022-09-12T09:20:06.669Z,99954.91
2022-09-12T09:22:44.474Z,99949.31
2022-09-12T09:25:22.988Z,99954.16
2022-09-12T09:27:59.536Z,99950.91
2022-09-12T09:30:28.592Z,99953.91
2022-09-12T09:33:00.918Z,99947.19
2022-09-12T09:35:36.837Z,99941.41
2022-09-12T09:38:24.502Z,99943.56
2022-09-12T09:41:13.620Z,99942.56
2022-09-12T09:43:43.274Z,99946.34
2022-09-12T09:46:12.275Z,99940.72
2022-09-12T09:48:46.133Z,99944.91
2022-09-12T09:51:18.240Z,99937.97
2022-09-12T09:53:51.305Z,99940.53
2022-09-12T09:56:31.534Z,99930.56
2022-09-12T09:59:11.773Z,99921.06
2022-09-12T10:01:47.860Z,99922.69
2022-09-12T10:04:22.927Z,99920.69
2022-09-12T10:06:59.894Z,99915.63
2022-09-12T10:09:32.969Z,99912.41
2022-09-12T10:12:20.325Z,99912.69
2022-09-12T10:15:00.540Z,99906.22
2022-09-12T10:17:34.623Z,99907.03
2022-09-12T10:20:20.915Z,99915.97
2022-09-12T10:22:50.249Z,99904.19
2022-09-12T10:25:21.419Z,99899.50
2022-09-12T10:27:57.428Z,99897.81
2022-09-12T10:30:29.201Z,99899.88
2022-09-12T10:33:08.352Z,99891.06
2022-09-12T10:35:48.471Z,99892.25
2022-09-12T10:38:24.788Z,99890.03
2022-09-12T10:41:02.413Z,99891.66
2022-09-12T10:43:37.225Z,99885.16
2022-09-12T10:46:32.273Z,99876.94
2022-09-12T10:49:37.947Z,99865.50
2022-09-12T10:52:23.074Z,99865.94
2022-09-12T10:54:51.728Z,99861.00
2022-09-12T10:57:53.988Z,99869.84
2022-09-12T11:00:27.827Z,99869.84
2022-09-12T11:03:16.374Z,99869.25
2022-09-12T11:05:56.183Z,99860.16
2022-09-12T11:08:53.341Z,99861.16
2022-09-12T11:11:44.028Z,99847.03
2022-09-12T11:14:37.470Z,99836.63
2022-09-12T11:17:23.795Z,99841.94
2022-09-12T11:20:34.478Z,99833.41
2022-09-12T11:23:41.988Z,99840.41
2022-09-12T11:26:31.783Z,99825.44
2022-09-12T11:29:14.790Z,99820.78
2022-09-12T11:32:23.285Z,99819.47
2022-09-12T11:35:04.422Z,99826.75
2022-09-12T11:37:57.636Z,99813.91
2022-09-12T11:40:34.320Z,99818.53
2022-09-12T11:43:13.204Z,99809.63
2022-09-12T11:45:44.490Z,99806.94
2022-09-12T11:48:19.350Z,99807.16
2022-09-12T11:50:49.651Z,99809.63
2022-09-12T11:53:24.100Z,99812.69
2022-09-12T11:55:59.480Z,99805.31
2022-09-12T11:58:30.256Z,99808.94
2022-09-12T12:01:11.418Z,99802.41
2022-09-12T12:03:44.562Z,99799.25
2022-09-12T12:06:20.207Z,99804.56
2022-09-12T12:08:50.631Z,99794.22
2022-09-12T12:11:31.761Z,99787.56
2022-09-12T12:14:04.708Z,99797.94
2022-09-12T12:16:35.842Z,99790.88
2022-09-12T12:19:10.987Z,99782.41
2022-09-12T12:21:42.681Z,99777.06
2022-09-12T12:24:22.580Z,99779.47
2022-09-12T12:27:00.814Z,99769.59
2022-09-12T12:29:45.989Z,99770.84
2022-09-12T12:32:27.632Z,99763.69
2022-09-12T12:35:39.871Z,99762.66
2022-09-12T12:38:29.560Z,99760.50
2022-09-12T12:41:44.622Z,99760.28
2022-09-12T12:44:52.494Z,99758.00
2022-09-12T12:47:24.929Z,99754.13
2022-09-12T12:49:59.175Z,99756.19
2022-09-12T12:52:32.199Z,99747.75
2022-09-12T12:55:03.797Z,99749.53
2022-09-12T12:57:49.537Z,99743.47
2022-09-12T13:00:32.751Z,99739.38
2022-09-12T13:03:07.593Z,99746.13
2022-09-12T13:05:43.668Z,99742.34
2022-09-12T13:08:29.895Z,99741.38
2022-09-12T13:11:06.824Z,99737.41
2022-09-12T13:13:41.548Z,99723.06
2022-09-12T13:16:12.439Z,99727.78
2022-09-12T13:18:46.172Z,99723.44
2022-09-12T13:21:16.611Z,99726.50
2022-09-12T13:23:46.144Z,99735.09
2022-09-12T13:26:25.131Z,99729.50
2022-09-12T13:29:11.616Z,99723.16
2022-09-12T13:31:46.630Z,99729.50
2022-09-12T13:34:21.828Z,99736.84
2022-09-12T13:37:12.531Z,99732.28
2022-09-12T13:39:49.564Z,99730.16
2022-09-12T13:42:41.432Z,99724.72
2022-09-12T13:45:21.171Z,99718.88
2022-09-12T13:47:58.393Z,99712.44
2022-09-12T13:50:31.750Z,99703.34
2022-09-12T13:53:03.683Z,99707.38
2022-09-12T13:55:34.717Z,99704.13
2022-09-12T13:58:07.029Z,99704.00
2022-09-12T14:00:38.071Z,99696.84
2022-09-12T14:03:45.570Z,99693.56
2022-09-12T14:06:18.858Z,99683.72
2022-09-12T14:08:48.880Z,99684.22
2022-09-12T14:11:28.308Z,99683.38
2022-09-12T14:13:59.255Z,99667.72
2022-09-12T14:16:28.888Z,99666.94
2022-09-12T14:18:57.583Z,99677.72
2022-09-12T14:21:35.773Z,99674.94
2022-09-12T14:24:08.450Z,99669.34
2022-09-12T14:26:40.435Z,99672.09
2022-09-12T14:29:16.820Z,99673.25
2022-09-12T14:31:45.560Z,99656.94
2022-09-12T14:34:16.347Z,99660.03
2022-09-12T14:36:48.795Z,99657.22
2022-09-12T14:39:24.258Z,99663.25
2022-09-12T14:42:00.954Z,99663.56
2022-09-12T14:44:32.094Z,99650.84
2022-09-12T14:47:14.106Z,99652.44
2022-09-12T14:49:43.143Z,99647.75
2022-09-12T14:52:27.643Z,99650.47
2022-09-12T14:55:01.584Z,99647.56
2022-09-12T14:57:39.302Z,99639.50
2022-09-12T15:00:23.156Z,99646.47
2022-09-12T15:02:53.298Z,99648.72
2022-09-12T15:05:29.433Z,99649.34
2022-09-12T15:08:03.831Z,99658.56
2022-09-12T15:10:36.752Z,99646.94
2022-09-12T15:13:22.572Z,99644.88
2022-09-12T15:15:55.700Z,99644.09
2022-09-12T15:18:27.749Z,99629.19
2022-09-12T15:20:59.486Z,99633.34
2022-09-12T15:23:40.156Z,99632.00
2022-09-12T15:26:10.940Z,99628.03
2022-09-12T15:28:39.423Z,99630.91
2022-09-12T15:31:20.941Z,99627.59
2022-09-12T15:33:49.417Z,99621.06
2022-09-12T15:36:21.607Z,99629.75
2022-09-12T15:38:50.742Z,99626.25
2022-09-12T15:41:21.145Z,99629.31
2022-09-12T15:43:51.295Z,99623.84
2022-09-12T15:46:21.445Z,99618.75
2022-09-12T15:48:50.136Z,99606.81
2022-09-12T15:51:20.872Z,99608.44
2022-09-12T15:53:51.018Z,99602.13
2022-09-12T15:56:22.001Z,99608.16
2022-09-12T15:59:00.104Z,99605.75
2022-09-12T16:01:30.896Z,99602.41
2022-09-12T16:03:59.768Z,99601.41
2022-09-12T16:06:32.484Z,99602.09
2022-09-12T16:09:05.335Z,99600.53
2022-09-12T16:11:33.941Z,99586.75
2022-09-12T16:14:02.305Z,99602.09
2022-09-12T16:16:32.208Z,99598.53
2022-09-12T16:19:00.392Z,99594.19
2022-09-12T16:21:29.349Z,99597.16
2022-09-12T16:23:57.590Z,99587.47
2022-09-12T16:26:25.873Z,99590.31
2022-09-12T16:28:56.908Z,99582.94
2022-09-12T16:31:26.779Z,99585.44
2022-09-12T16:33:57.173Z,99577.78
2022-09-12T16:36:25.537Z,99581.50
2022-09-12T16:38:55.170Z,99570.53
2022-09-12T16:41:26.529Z,99568.81
2022-09-12T16:43:55.658Z,99568.22
2022-09-12T16:46:27.884Z,99573.41
2022-09-12T16:48:59.625Z,99569.41
2022-09-12T16:51:31.827Z,99571.22
2022-09-12T16:54:00.595Z,99579.97
2022-09-12T16:56:28.992Z,99571.94
2022-09-12T16:58:57.732Z,99563.22
2022-09-12T17:01:27.778Z,99558.97
2022-09-12T17:04:00.162Z,99573.28
2022-09-12T17:06:29.700Z,99572.16
2022-09-12T17:09:02.800Z,99570.38
2022-09-12T17:11:33.925Z,99568.50
2022-09-12T17:14:06.956Z,99563.66
2022-09-12T17:16:36.563Z,99567.81
2022-09-12T17:19:07.910Z,99559.19
2022-09-12T17:21:37.793Z,99561.84
2022-09-12T17:24:06.482Z,99555.72
2022-09-12T17:26:34.701Z,99561.81
2022-09-12T17:29:03.174Z,99556.91
2022-09-12T17:31:31.882Z,99556.47
2022-09-12T17:34:01.742Z,99548.13
2022-09-12T17:36:33.980Z,99535.34
2022-09-12T17:39:04.765Z,99548.59
2022-09-12T17:41:33.661Z,99541.50
2022-09-12T17:44:03.411Z,99541.06
2022-09-12T17:46:35.357Z,99541.47
2022-09-12T17:49:05.879Z,99544.41
2022-09-12T17:51:35.883Z,99541.16
2022-09-12T17:54:08.348Z,99536.81
2022-09-12T17:56:38.024Z,99545.72
2022-09-12T17:59:08.629Z,99540.53
2022-09-12T18:01:53.762Z,99544.53
2022-09-12T18:04:22.193Z,99548.72
2022-09-12T18:06:52.964Z,99549.78
2022-09-12T18:09:25.281Z,99553.78
2022-09-12T18:11:54.750Z,99548.94
2022-09-12T18:14:24.775Z,99550.34
2022-09-12T18:16:52.962Z,99551.03
2022-09-12T18:19:21.216Z,99544.28
2022-09-12T18:21:50.811Z,99538.13
2022-09-12T18:24:19.691Z,99544.13
2022-09-12T18:26:48.128Z,99542.59
2022-09-12T18:29:17.287Z,99540.59
2022-09-12T18:31:46.684Z,99534.50
2022-09-12T18:34:16.201Z,99530.56
2022-09-12T18:36:47.996Z,99531.13
2022-09-12T18:39:18.993Z,99536.38
2022-09-12T18:41:47.716Z,99523.97
2022-09-12T18:44:15.912Z,99528.06
2022-09-12T18:46:44.223Z,99532.94
2022-09-12T18:49:12.694Z,99543.16
2022-09-12T18:51:41.826Z,99540.25
2022-09-12T18:54:17.907Z,99544.03
2022-09-12T18:56:46.173Z,99528.41
2022-09-12T18:59:14.893Z,99526.03
2022-09-12T19:01:44.150Z,99529.53
2022-09-12T19:04:14.268Z,99528.50
2022-09-12T19:06:44.804Z,99523.19
2022-09-12T19:09:15.288Z,99519.47
2022-09-12T19:11:49.628Z,99518.41
2022-09-12T19:14:19.816Z,99529.03
2022-09-12T19:16:48.032Z,99526.84
2022-09-12T19:19:16.226Z,99530.53
2022-09-12T19:21:44.708Z,99523.47
2022-09-12T19:24:14.424Z,99531.34
2022-09-12T19:26:44.667Z,99535.34
2022-09-12T19:29:14.672Z,99527.97
2022-09-12T19:31:43.412Z,99530.69
2022-09-12T19:34:13.470Z,99537.22
2022-09-12T19:36:47.123Z,99536.69
2022-09-12T19:39:17.301Z,99530.16
2022-09-12T19:41:47.413Z,99527.72
2022-09-12T19:44:15.755Z,99526.31
2022-09-12T19:46:44.446Z,99531.38
2022-09-12T19:49:14.631Z,99526.59
2022-09-12T19:51:43.999Z,99532.38
2022-09-12T19:54:12.675Z,99529.69
2022-09-12T19:56:41.023Z,99529.31
2022-09-12T19:59:10.742Z,99530.41
2022-09-12T20:01:39.431Z,99526.34
2022-09-12T20:04:07.783Z,99528.56
2022-09-12T20:06:36.702Z,99529.69
2022-09-12T20:09:05.307Z,99526.00
2022-09-12T20:11:35.371Z,99516.34
2022-09-12T20:14:03.768Z,99513.75
2022-09-12T20:16:33.757Z,99515.81
2022-09-12T20:19:07.091Z,99514.38
2022-09-12T20:21:36.723Z,99513.91
2022-09-12T20:24:07.614Z,99513.63
2022-09-12T20:26:35.852Z,99517.03
2022-09-12T20:29:05.363Z,99521.78
2022-09-12T20:31:35.842Z,99520.34
2022-09-12T20:34:04.868Z,99526.16
2022-09-12T20:36:33.448Z,99536.97
2022-09-12T20:39:03.244Z,99537.66
2022-09-12T20:41:37.648Z,99527.97
2022-09-12T20:44:06.325Z,99526.84
2022-09-12T20:46:37.876Z,99522.34
2022-09-12T20:49:06.523Z,99514.22
2022-09-12T20:51:34.879Z,99509.88
2022-09-12T20:54:06.263Z,99514.00
2022-09-12T20:56:37.925Z,99515.69
2022-09-12T20:59:06.983Z,99499.84
2022-09-12T21:01:36.989Z,99500.78
2022-09-12T21:04:05.585Z,99498.31
2022-09-12T21:06:33.989Z,99489.91
2022-09-12T21:09:04.697Z,99497.84
2022-09-12T21:11:33.431Z,99485.31
2022-09-12T21:14:01.810Z,99491.56
2022-09-12T21:16:30.430Z,99493.06
2022-09-12T21:19:00.428Z,99487.75
2022-09-12T21:21:28.957Z,99495.03
2022-09-12T21:23:59.896Z,99483.13
2022-09-12T21:26:32.476Z,99484.44
2022-09-12T21:29:01.440Z,99489.97
2022-09-12T21:31:32.398Z,99490.63
2022-09-12T21:34:02.080Z,99490.84
2022-09-12T21:36:30.432Z,99480.81
2022-09-12T21:39:00.040Z,99484.66
2022-09-12T21:41:28.774Z,99487.22
2022-09-12T21:43:57.086Z,99479.09
2022-09-12T21:46:25.401Z,99485.34
2022-09-12T21:48:53.620Z,99474.81
2022-09-12T21:51:23.229Z,99487.84
2022-09-12T21:53:51.461Z,99487.66
2022-09-12T21:56:20.854Z,99484.78
2022-09-12T21:58:49.150Z,99487.94
2022-09-12T22:01:17.453Z,99501.63
2022-09-12T22:03:45.708Z,99500.13
2022-09-12T22:06:14.658Z,99496.19
2022-09-12T22:08:45.856Z,99490.41
2022-09-12T22:11:14.126Z,99502.84
2022-09-12T22:13:43.930Z,99496.41
2022-09-12T22:16:12.554Z,99499.19
2022-09-12T22:18:40.935Z,99502.19
2022-09-12T22:21:13.318Z,99513.75
2022-09-12T22:23:59.732Z,99509.94
2022-09-12T22:26:30.033Z,99517.16
2022-09-12T22:28:58.348Z,99522.41
2022-09-12T22:31:28.055Z,99505.75
2022-09-12T22:33:58.302Z,99495.53
2022-09-12T22:36:30.973Z,99503.34
2022-09-12T22:39:01.018Z,99505.84
2022-09-12T22:41:30.808Z,99505.31
2022-09-12T22:43:59.876Z,99510.47
2022-09-12T22:46:29.978Z,99499.44
2022-09-12T22:48:58.249Z,99502.09
2022-09-12T22:51:26.829Z,99506.25
2022-09-12T22:53:56.406Z,99511.94
2022-09-12T22:56:24.873Z,99517.00
2022-09-12T22:58:55.145Z,99509.97
2022-09-12T23:01:24.022Z,99505.66
2022-09-12T23:03:52.494Z,99508.34
2022-09-12T23:06:21.202Z,99505.31
2022-09-12T23:08:49.713Z,99503.06
2022-09-12T23:11:22.166Z,99511.84
2022-09-12T23:13:52.302Z,99507.78
2022-09-12T23:16:25.798Z,99501.91
2022-09-12T23:18:54.339Z,99495.81
2022-09-12T23:21:23.496Z,99496.19
2022-09-12T23:23:52.943Z,99478.88
2022-09-12T23:26:23.213Z,99477.91
2022-09-12T23:28:54.901Z,99469.59
2022-09-12T23:31:32.146Z,99473.50
2022-09-12T23:34:03.270Z,99473.69
2022-09-12T23:36:31.876Z,99468.81
2022-09-12T23:39:01.157Z,99469.63
2022-09-12T23:41:30.323Z,99478.38
2022-09-12T23:43:58.828Z,99468.22
2022-09-12T23:46:28.437Z,99465.78
2022-09-12T23:48:56.895Z,99467.59
2022-09-12T23:51:25.088Z,99469.00
2022-09-12T23:53:53.273Z,99456.03
2022-09-12T23:56:22.036Z,99460.09
2022-09-12T23:58:50.412Z,99456.22
